createdAt,value
2022-08-10T00:00:47.219Z,19.01442
2022-08-10T00:05:53.084Z,18.91911
2022-08-10T00:10:54.445Z,18.84998
2022-08-10T00:15:55.755Z,18.77308
2022-08-10T00:20:57.063Z,18.70362
2022-08-10T00:25:57.964Z,18.66163
2022-08-10T00:30:58.933Z,18.61769
2022-08-10T00:35:59.893Z,18.53886
2022-08-10T00:41:00.824Z,18.47037
2022-08-10T00:46:01.904Z,18.42837
2022-08-10T00:51:02.835Z,18.38863
2022-08-10T00:57:07.913Z,18.35019
2022-08-10T01:02:18.308Z,18.36182
2022-08-10T01:07:19.304Z,18.34146
2022-08-10T01:12:37.772Z,18.29042
2022-08-10T01:17:49.774Z,18.21579
2022-08-10T01:22:52.073Z,18.16345
2022-08-10T01:27:52.991Z,18.09173
2022-08-10T01:32:53.950Z,18.01323
2022-08-10T01:37:54.904Z,17.94409
2022-08-10T01:42:55.861Z,17.8672
2022-08-10T01:48:00.734Z,17.79354
2022-08-10T01:53:01.792Z,17.69759
2022-08-10T01:58:02.738Z,17.60681
2022-08-10T02:03:03.670Z,17.51797
2022-08-10T02:08:04.900Z,17.44915
2022-08-10T02:13:05.880Z,17.41458
2022-08-10T02:18:06.836Z,17.35773
2022-08-10T02:23:07.751Z,17.30442
2022-08-10T02:28:08.747Z,17.24078
2022-08-10T02:33:09.689Z,17.17196
2022-08-10T02:38:12.258Z,17.11381
2022-08-10T02:45:23.629Z,17.05695
2022-08-10T02:50:29.830Z,17.03272
2022-08-10T02:55:32.448Z,17.00042
2022-08-10T03:00:33.684Z,16.93225
2022-08-10T03:05:34.624Z,16.87894
2022-08-10T03:10:38.085Z,16.82499
2022-08-10T03:15:40.562Z,16.78558
2022-08-10T03:20:41.547Z,16.75456
2022-08-10T03:25:53.197Z,16.71354
2022-08-10T03:30:54.942Z,16.67445
2022-08-10T03:36:40.447Z,16.59594
2022-08-10T03:41:47.654Z,16.52939
2022-08-10T03:46:55.080Z,16.50839
2022-08-10T03:51:56.137Z,16.4693
2022-08-10T03:56:57.649Z,16.43021
2022-08-10T04:02:45.387Z,16.39823
2022-08-10T04:07:49.139Z,16.37077
2022-08-10T04:12:50.138Z,16.35817
2022-08-10T04:17:56.947Z,16.38724
2022-08-10T04:23:06.356Z,16.43247
2022-08-10T04:28:07.264Z,16.53973
2022-08-10T04:33:08.244Z,16.55104
2022-08-10T04:38:09.204Z,16.60886
2022-08-10T04:43:13.194Z,16.64731
2022-08-10T04:48:40.956Z,16.67057
2022-08-10T04:54:05.111Z,16.72161
2022-08-10T04:59:07.212Z,16.77007
2022-08-10T05:04:38.497Z,16.79172
2022-08-10T05:10:01.474Z,16.83501
2022-08-10T05:15:06.083Z,16.84179
2022-08-10T05:20:07.817Z,16.94162
2022-08-10T05:25:09.089Z,17.07343
2022-08-10T05:30:09.999Z,17.20362
2022-08-10T05:35:10.944Z,17.2902
2022-08-10T05:40:11.888Z,17.40263
2022-08-10T05:45:12.787Z,17.54026
2022-08-10T05:50:13.736Z,17.68951
2022-08-10T05:55:14.666Z,17.84459
2022-08-10T06:00:37.322Z,18.80313
2022-08-10T06:05:39.994Z,19.28515
2022-08-10T06:11:07.705Z,18.92234
2022-08-10T06:17:26.848Z,18.89488
2022-08-10T06:22:27.755Z,19.05125
2022-08-10T06:27:34.271Z,19.17725
2022-08-10T06:32:36.207Z,19.29032
2022-08-10T06:37:37.629Z,19.49741
2022-08-10T06:42:38.560Z,19.68124
2022-08-10T06:47:39.464Z,19.90965
2022-08-10T06:52:40.393Z,20.23693
2022-08-10T06:57:41.309Z,20.51897
2022-08-10T07:02:42.212Z,20.96902
2022-08-10T07:07:43.129Z,21.0023
2022-08-10T07:12:44.103Z,21.05786
2022-08-10T07:17:45.053Z,21.25462
2022-08-10T07:23:01.437Z,21.43328
2022-08-10T07:28:58.006Z,22.04681
2022-08-10T07:33:58.949Z,22.95306
2022-08-10T07:38:59.910Z,22.74758
2022-08-10T07:44:00.846Z,22.50139
2022-08-10T07:49:01.755Z,22.48653
2022-08-10T07:54:16.218Z,22.64355
2022-08-10T07:59:17.151Z,22.7521
2022-08-10T08:04:18.048Z,23.16824
2022-08-10T08:09:19.000Z,23.64188
2022-08-10T08:14:20.018Z,23.50328
2022-08-10T08:19:28.216Z,23.56111
2022-08-10T08:24:37.770Z,24.25413
2022-08-10T08:29:39.059Z,24.06513
2022-08-10T08:34:40.094Z,24.08257
2022-08-10T08:39:41.133Z,24.2774
2022-08-10T08:44:45.170Z,24.49516
2022-08-10T08:50:08.319Z,25.8011
2022-08-10T08:56:00.753Z,25.352
2022-08-10T09:01:08.665Z,26.08316
2022-08-10T09:06:09.577Z,26.00336
2022-08-10T09:11:10.498Z,26.1145
2022-08-10T09:16:11.483Z,25.88607
2022-08-10T09:21:12.452Z,25.78494
2022-08-10T09:26:13.357Z,25.92807
2022-08-10T09:31:23.138Z,26.12032
2022-08-10T09:36:33.127Z,26.20044
2022-08-10T09:41:34.594Z,26.35682
2022-08-10T09:46:35.911Z,26.38719
2022-08-10T09:51:46.448Z,26.62596
2022-08-10T09:56:47.960Z,26.71029
2022-08-10T10:02:03.835Z,26.7972
2022-08-10T10:07:05.460Z,26.9119
2022-08-10T10:12:09.819Z,27.19559
2022-08-10T10:17:11.236Z,27.35455
2022-08-10T10:22:12.145Z,27.38815
2022-08-10T10:27:16.016Z,27.48347
2022-08-10T10:32:17.602Z,27.63565
2022-08-10T10:37:18.505Z,27.9077
2022-08-10T10:42:42.376Z,27.94356
2022-08-10T10:47:45.566Z,27.96844
2022-08-10T10:52:46.498Z,28.05891
2022-08-10T10:57:58.857Z,27.91449
2022-08-10T11:03:01.841Z,27.86667
2022-08-10T11:08:02.771Z,27.93549
2022-08-10T11:14:23.545Z,28.07668
2022-08-10T11:20:01.253Z,27.92418
2022-08-10T11:25:04.834Z,28.02434
2022-08-10T11:30:05.744Z,28.0825
2022-08-10T11:35:10.198Z,28.01659
2022-08-10T11:40:13.047Z,27.99268
2022-08-10T11:45:14.004Z,28.12773
2022-08-10T11:50:14.909Z,27.97555
2022-08-10T11:55:15.866Z,27.89251
2022-08-10T12:00:17.390Z,27.95035
2022-08-10T12:05:18.320Z,27.90673
2022-08-10T12:10:19.370Z,28.1161
2022-08-10T12:15:20.300Z,28.37361
2022-08-10T12:20:21.207Z,28.55714
2022-08-10T12:25:57.831Z,28.90771
2022-08-10T12:30:59.521Z,29.18235
2022-08-10T12:36:17.976Z,29.67089
2022-08-10T12:41:43.613Z,29.77848
2022-08-10T12:46:46.242Z,30.33649
2022-08-10T12:51:49.568Z,30.67285
2022-08-10T12:56:50.856Z,31.45285
2022-08-10T13:02:06.681Z,32.00473
2022-08-10T13:08:24.608Z,32.49554
2022-08-10T13:13:28.504Z,31.85189
2022-08-10T13:18:29.499Z,31.05122
2022-08-10T13:23:30.414Z,31.42183
2022-08-10T13:28:35.606Z,32.35886
2022-08-10T13:34:41.575Z,33.05842
2022-08-10T13:39:58.194Z,33.42581
2022-08-10T13:45:01.703Z,33.51208
2022-08-10T13:50:02.620Z,33.68947
2022-08-10T13:55:03.618Z,33.81355
2022-08-10T14:00:36.761Z,33.68721
2022-08-10T14:05:39.173Z,34.18353
2022-08-10T14:11:08.363Z,34.40778
2022-08-10T14:16:12.389Z,34.56223
2022-08-10T14:21:13.314Z,34.85305
2022-08-10T14:26:16.129Z,34.61329
2022-08-10T14:31:21.602Z,34.72897
2022-08-10T14:36:24.468Z,34.86339
2022-08-10T14:42:03.792Z,34.34638
2022-08-10T14:47:08.590Z,34.70118
2022-08-10T14:52:55.306Z,34.8747
2022-08-10T14:58:17.303Z,35.23304
2022-08-10T15:04:01.340Z,35.2702
2022-08-10T15:09:03.686Z,35.41884
2022-08-10T15:20:01.114Z,35.05694
2022-08-10T15:25:05.776Z,34.51861
2022-08-10T15:30:18.610Z,34.16931
2022-08-10T15:35:19.531Z,33.77058
2022-08-10T15:40:32.337Z,33.54407
2022-08-10T15:45:35.559Z,33.76573
2022-08-10T15:50:40.095Z,33.88141
2022-08-10T15:55:45.316Z,33.77898
2022-08-10T16:00:46.886Z,33.69561
2022-08-10T16:06:01.069Z,33.6326
2022-08-10T16:11:04.091Z,33.24454
2022-08-10T16:16:05.013Z,33.03515
2022-08-10T16:21:05.924Z,32.98604
2022-08-10T16:26:15.197Z,32.78377
2022-08-10T16:31:18.356Z,32.5466
2022-08-10T16:36:19.288Z,32.11394
2022-08-10T16:42:02.970Z,31.95238
2022-08-10T16:47:06.429Z,31.74171
2022-08-10T16:52:07.415Z,31.55721
2022-08-10T16:57:08.330Z,31.37304
2022-08-10T17:02:09.335Z,31.19985
2022-08-10T17:07:10.440Z,31.03603
2022-08-10T17:12:11.372Z,30.83958
2022-08-10T17:17:12.313Z,30.59272
2022-08-10T17:22:13.236Z,30.37236
2022-08-10T17:28:05.341Z,30.0919
2022-08-10T17:33:36.597Z,29.82242
2022-08-10T17:38:37.911Z,29.7759
2022-08-10T17:43:58.572Z,29.4418
2022-08-10T17:49:03.969Z,29.18041
2022-08-10T17:54:05.028Z,28.92709
2022-08-10T17:59:11.511Z,28.69833
2022-08-10T18:04:18.070Z,28.70447
2022-08-10T18:09:19.005Z,28.39462
2022-08-10T18:14:19.922Z,28.37588
2022-08-10T18:24:21.396Z,27.91449
2022-08-10T18:29:22.401Z,27.56683
2022-08-10T18:34:23.353Z,27.18622
2022-08-10T18:39:24.322Z,26.84599
2022-08-10T18:44:25.255Z,26.5901
2022-08-10T18:49:26.174Z,26.37169
2022-08-10T18:54:39.862Z,26.16684
2022-08-10T19:00:07.974Z,25.95489
2022-08-10T19:05:30.229Z,25.84181
2022-08-10T19:10:33.105Z,25.7843
2022-08-10T19:15:34.132Z,25.87993
2022-08-10T19:20:37.042Z,25.75328
2022-08-10T19:26:32.912Z,25.4877
2022-08-10T19:31:45.650Z,25.14909
2022-08-10T19:36:46.601Z,24.94425
2022-08-10T19:41:47.500Z,24.77657
2022-08-10T19:46:55.317Z,24.62084
2022-08-10T19:51:56.278Z,24.49128
2022-08-10T19:56:57.240Z,24.374
2022-08-10T20:01:58.879Z,24.28676
2022-08-10T20:06:59.821Z,24.16851
2022-08-10T20:12:00.794Z,24.06254
2022-08-10T20:17:02.137Z,23.95689
2022-08-10T20:22:03.063Z,23.85189
2022-08-10T20:27:18.329Z,23.68679
2022-08-10T20:32:59.169Z,23.56951
2022-08-10T20:38:03.466Z,23.49455
2022-08-10T20:43:05.591Z,23.35175
2022-08-10T20:48:06.500Z,23.28132
2022-08-10T20:53:07.413Z,23.22445
2022-08-10T20:58:10.684Z,23.03771
2022-08-10T21:03:20.957Z,22.98925
2022-08-10T21:08:23.260Z,22.89426
2022-08-10T21:13:24.222Z,22.87455
2022-08-10T21:18:25.323Z,22.81866
2022-08-10T21:23:30.534Z,22.7702
2022-08-10T21:28:31.843Z,22.69589
2022-08-10T21:33:32.771Z,22.61027
2022-08-10T21:38:33.676Z,22.59347
2022-08-10T21:43:44.717Z,22.55599
2022-08-10T21:48:46.939Z,22.4988
2022-08-10T21:53:58.849Z,22.43225
2022-08-10T21:58:59.831Z,22.31626
2022-08-10T22:04:00.758Z,22.22418
2022-08-10T22:09:01.762Z,22.15408
2022-08-10T22:14:02.654Z,22.06264
2022-08-10T22:19:13.478Z,22.17572
2022-08-10T22:24:16.884Z,22.06975
2022-08-10T22:29:20.060Z,21.93406
2022-08-10T22:34:20.974Z,21.82809
2022-08-10T22:40:11.314Z,21.74441
2022-08-10T22:45:14.291Z,21.65685
2022-08-10T22:50:20.168Z,21.58578
2022-08-10T22:55:21.068Z,21.47399
2022-08-10T23:00:31.395Z,21.38417
2022-08-10T23:05:32.792Z,21.27659
2022-08-10T23:10:33.691Z,21.17902
2022-08-10T23:15:34.596Z,21.09599
2022-08-10T23:20:35.507Z,21.01748
2022-08-10T23:25:36.426Z,20.9758
2022-08-10T23:30:45.196Z,20.86466
2022-08-10T23:36:31.733Z,20.76483
2022-08-10T23:41:35.907Z,20.60394
2022-08-10T23:46:36.923Z,20.53093
2022-08-10T23:51:38.893Z,20.4214
2022-08-10T23:56:55.958Z,20.32286
